หน้าหลัก
METAR-TAF:

METAR-TAF

ท่าอากาศยาน :

Mar del Plata, อาร์เจนตินา

ละติจูด: 37-56S, ลองจิจูด: 057-35W, ความสูง: 18 ม.

การสังเกตสภาพอากาศปัจจุบัน

รายงานได้ทำขึ้นเมื่อ 53 นาทีที่แล้ว ณ เวลา 08:00 UTC
ลม 7 นอตจากตะวันออก
อุณหภูมิ 17°C
ความชื้น 63%
ความกดอากาศ 1027 hPa
ทัศนวิสัย 10 กม. หรือมากกว่า
มีเมฆเป็นส่วนมากเว้นเป็นระยะที่ความสูง 3800 ฟุต

METAR: SAZM 250800Z 09007KT 9999 BKN038 17/10 Q1027

เวลา: 05:53 (08:53 UTC)

การพยากรณ์

รายงานได้ทำขึ้นเมื่อ 3 ชั่วโมงและ 53 นาทีที่แล้ว ณ เวลา 05:00 UTC
การพยากรณ์มีผลตั้งแต่วันที่ 25 ณ เวลา 06 UTC จนถึงวันที่ 26 ณ เวลา 06 UTC
ลม 10 นอตจากตะวันออก
ทัศนวิสัย 10 กม. หรือมากกว่า
มีเมฆเป็นส่วนมากเว้นเป็นระยะที่ความสูง 3500 ฟุต
ชั่วคราว
ตั้งแต่วันที่ 25 ณ เวลา 08 UTC จนถึงวันที่ 25 ณ เวลา 12 UTC
ทัศนวิสัย: 6000 ม.
มีเมฆเป็นส่วนมากเว้นเป็นระยะที่ความสูง 1000 ฟุต
กำลังกลายเป็น
ตั้งแต่วันที่ 25 ณ เวลา 12 UTC จนถึงวันที่ 25 ณ เวลา 14 UTC
ลม 10 นอตจากตะวันออก/ตะวันออกเฉียงเหนือโดยมีลมกระโชกได้ถึง20 นอต

TAF: SAZM 250500Z 2506/2606 09010KT 9999 BKN035 TX21/2518Z TN13/2509Z TEMPO 2508/2512 6000 BKN010 BECMG 2512/2514 07010G20KT

สังเกตการณ์สภาพอากาศและพยากรณ์อากาศของสนามบินมากกว่า 4000 แห่ง (รายงาน METAR และ TAF).

สถานีที่ดูได้จะแสดงไว้ด้วยจุดสีเหลืองและสีแดงบนแผนที่.

เลื่อนเมาส์ไปเหนือจุดเพื่อดูชื่อสถานี.

แล้วคลิกเพื่อดูสังเกตการณ์และการพยากรณ์สภาพอากาศ.

ในการเปลี่ยนแผนที่: คลิกที่ปุ่มสีเขียวที่มีกากบาทสีดำเพื่อซูมเข้า; ที่ปุ่มสีเขียวที่มีขีดเพื่อซูมออก; หรือที่ลูกศรสีเขียวเพื่อไปยังแผนที่ที่อยู่ติดกัน.


METAR-TAF: